Aeroporto :
LOGIN :

Iscrizione | Disclaimer

   EN    FR    IT 

 










Sommario :    VFR   VFR Marginale   IFR   IFR Intensivo   IFR Molto Intensivo
Visibilità : 
Base nubi : 
>= 8 km
>= 3000ft
5 / 8 km
1000 / 3000 ft
1500m / 5 km
500 / 1000 ft
800 / 1500m
200 / 500 ft
< 800m
< 200 ft
Simboli :   Temporali  Nebbia  Neve Forte  Precipitazioni Forti  Vento > 20 kt
SIGMETs :   Varie  Temporali  Ghiacco  Turbolenza  Onda orograficha  Ceneri Vulcaniche







- Altitudine del aeroporto : 200 ft


EBBL - Klein Brogel AB

ULTIMO METAR :
  • 140955Z 29006KT 9999 FEW024 BKN046 21/16 Q1015 BLU BLU TEMPO WHT

METARs OBSOLETI :
  • 140855Z 29007KT 9999 FEW018 BKN033 21/16 Q1014 BLU BLU TEMPO WHT
  • 140825Z 28008KT 9999 FEW012 SCT035 21/16 Q1014 BLU BLU TEMPO WHT
  • 140814Z 28008KT 9999 FEW012 SCT035 20/16 Q1014 BLU BLU TEMPO WHT
  • 140755Z 27006KT 9999 FEW012 SCT014 BKN034 19/16 Q1014 GRN GRN BECMG WHT
  • 140725Z 27007KT 6000 FEW010 SCT013 BKN035 18/17 Q1014 GRN GRN BECMG WHT

TAF TAF EBBL
Valido dal 14 a 10 ore il 14 a 19 ore UTC


140841Z 1410/1419 28009KT 9999 SCT045 SCT090
TEMPO 1411/1419 SCT030 BKN160
PROB40
TEMPO 1411/1419 7000 -SHRA SCT024
Nessun NOTAM noto per questo aeroporto.



MetMap, La meteo Aeronautica in un colpo d'occhio ! - Copyright ORBIFLY Dicembre 2007 - Disclaimer

ORBIFLY MET'MAP TEAM :

Programmazione e sviluppo : Alexandra Zaïnal
Concezione e sviluppo : Baudouin d'Aumeries
Co-Programmazione e sviluppo : Marc-Olivier Méhu
Supporto tecnico e logistico : Manuel Goepfert
Aiuto per la traduzione : Arnaldo La Scala

Contatto : metmap@orbifly.com




FONTI E CREDITI :

   NOAA